sensor_id;sensor_type;location;lat;lon;timestamp;temperature;humidity
60469;DHT22;46316;47.582;10.238;2022-10-20T00:01:01;11.10;91.10
60469;DHT22;46316;47.582;10.238;2022-10-20T00:03:27;11.10;90.90
60469;DHT22;46316;47.582;10.238;2022-10-20T00:05:57;11.10;90.80
60469;DHT22;46316;47.582;10.238;2022-10-20T00:08:29;11.10;91.00
60469;DHT22;46316;47.582;10.238;2022-10-20T00:10:55;11.10;90.90
60469;DHT22;46316;47.582;10.238;2022-10-20T00:13:22;11.10;90.90
60469;DHT22;46316;47.582;10.238;2022-10-20T00:15:52;11.10;90.70
60469;DHT22;46316;47.582;10.238;2022-10-20T00:18:18;11.10;90.40
60469;DHT22;46316;47.582;10.238;2022-10-20T00:20:44;11.00;90.60
60469;DHT22;46316;47.582;10.238;2022-10-20T00:23:10;11.00;90.90
60469;DHT22;46316;47.582;10.238;2022-10-20T00:25:35;10.90;91.10
60469;DHT22;46316;47.582;10.238;2022-10-20T00:28:01;10.90;91.00
60469;DHT22;46316;47.582;10.238;2022-10-20T00:30:27;11.00;91.00
60469;DHT22;46316;47.582;10.238;2022-10-20T00:32:53;10.90;90.80
60469;DHT22;46316;47.582;10.238;2022-10-20T00:35:19;10.90;91.00
60469;DHT22;46316;47.582;10.238;2022-10-20T00:37:45;10.90;91.20
60469;DHT22;46316;47.582;10.238;2022-10-20T00:40:10;10.90;91.20
60469;DHT22;46316;47.582;10.238;2022-10-20T00:42:36;10.90;91.20
60469;DHT22;46316;47.582;10.238;2022-10-20T00:45:02;10.80;91.20
60469;DHT22;46316;47.582;10.238;2022-10-20T00:47:36;10.70;91.00
60469;DHT22;46316;47.582;10.238;2022-10-20T00:50:07;10.60;91.30
60469;DHT22;46316;47.582;10.238;2022-10-20T00:52:34;10.50;91.30
60469;DHT22;46316;47.582;10.238;2022-10-20T00:55:00;10.40;91.40
60469;DHT22;46316;47.582;10.238;2022-10-20T00:57:27;10.40;91.50
60469;DHT22;46316;47.582;10.238;2022-10-20T00:59:53;10.40;91.80
60469;DHT22;46316;47.582;10.238;2022-10-20T01:02:19;10.40;91.90
60469;DHT22;46316;47.582;10.238;2022-10-20T01:04:45;10.40;92.00
60469;DHT22;46316;47.582;10.238;2022-10-20T01:07:11;10.50;91.90
60469;DHT22;46316;47.582;10.238;2022-10-20T01:09:36;10.50;91.80
60469;DHT22;46316;47.582;10.238;2022-10-20T01:12:05;10.50;91.80
60469;DHT22;46316;47.582;10.238;2022-10-20T01:14:46;10.50;91.70
60469;DHT22;46316;47.582;10.238;2022-10-20T01:29:00;10.30;91.40
60469;DHT22;46316;47.582;10.238;2022-10-20T01:31:42;10.20;91.50
60469;DHT22;46316;47.582;10.238;2022-10-20T01:37:36;10.30;91.60
60469;DHT22;46316;47.582;10.238;2022-10-20T01:40:16;10.30;91.70
60469;DHT22;46316;47.582;10.238;2022-10-20T01:42:45;10.30;91.80
60469;DHT22;46316;47.582;10.238;2022-10-20T01:45:14;10.30;91.70
60469;DHT22;46316;47.582;10.238;2022-10-20T01:47:41;10.40;91.80
60469;DHT22;46316;47.582;10.238;2022-10-20T01:50:09;10.30;91.50
60469;DHT22;46316;47.582;10.238;2022-10-20T01:52:35;10.30;91.50
60469;DHT22;46316;47.582;10.238;2022-10-20T01:55:04;10.30;91.30
60469;DHT22;46316;47.582;10.238;2022-10-20T01:57:46;10.30;91.30
60469;DHT22;46316;47.582;10.238;2022-10-20T02:00:16;10.20;91.00
60469;DHT22;46316;47.582;10.238;2022-10-20T02:05:29;10.20;91.40
60469;DHT22;46316;47.582;10.238;2022-10-20T02:11:24;10.10;91.50
60469;DHT22;46316;47.582;10.238;2022-10-20T02:13:51;10.10;91.50
60469;DHT22;46316;47.582;10.238;2022-10-20T02:16:32;10.00;91.50
60469;DHT22;46316;47.582;10.238;2022-10-20T02:19:00;10.00;91.70
60469;DHT22;46316;47.582;10.238;2022-10-20T02:21:26;10.00;91.80
60469;DHT22;46316;47.582;10.238;2022-10-20T02:23:53;9.90;91.80
60469;DHT22;46316;47.582;10.238;2022-10-20T02:26:22;10.00;91.90
60469;DHT22;46316;47.582;10.238;2022-10-20T02:28:54;10.00;92.20
60469;DHT22;46316;47.582;10.238;2022-10-20T02:31:22;9.90;92.20
60469;DHT22;46316;47.582;10.238;2022-10-20T02:33:49;9.90;92.20
60469;DHT22;46316;47.582;10.238;2022-10-20T02:36:18;9.90;92.30
60469;DHT22;46316;47.582;10.238;2022-10-20T02:38:45;9.90;92.30
60469;DHT22;46316;47.582;10.238;2022-10-20T02:41:11;9.80;92.30
60469;DHT22;46316;47.582;10.238;2022-10-20T02:43:37;9.80;92.20
60469;DHT22;46316;47.582;10.238;2022-10-20T02:46:03;9.80;92.30
60469;DHT22;46316;47.582;10.238;2022-10-20T02:48:29;9.70;92.20
60469;DHT22;46316;47.582;10.238;2022-10-20T02:50:54;9.80;92.40
60469;DHT22;46316;47.582;10.238;2022-10-20T02:53:20;9.80;92.50
60469;DHT22;46316;47.582;10.238;2022-10-20T02:55:45;9.80;92.40
60469;DHT22;46316;47.582;10.238;2022-10-20T02:58:11;9.90;92.40
60469;DHT22;46316;47.582;10.238;2022-10-20T03:00:37;9.90;92.50
60469;DHT22;46316;47.582;10.238;2022-10-20T03:03:02;9.90;92.50
60469;DHT22;46316;47.582;10.238;2022-10-20T03:05:28;9.90;92.50
60469;DHT22;46316;47.582;10.238;2022-10-20T03:07:54;9.90;92.50
60469;DHT22;46316;47.582;10.238;2022-10-20T03:10:20;9.90;92.40
60469;DHT22;46316;47.582;10.238;2022-10-20T03:12:45;9.90;92.00
60469;DHT22;46316;47.582;10.238;2022-10-20T03:15:11;9.90;91.90
60469;DHT22;46316;47.582;10.238;2022-10-20T03:17:37;9.90;91.80
60469;DHT22;46316;47.582;10.238;2022-10-20T03:20:03;9.90;91.60
60469;DHT22;46316;47.582;10.238;2022-10-20T03:22:29;9.90;91.70
60469;DHT22;46316;47.582;10.238;2022-10-20T03:24:54;9.90;91.90
60469;DHT22;46316;47.582;10.238;2022-10-20T03:27:20;9.90;91.60
60469;DHT22;46316;47.582;10.238;2022-10-20T03:29:45;9.90;91.60
60469;DHT22;46316;47.582;10.238;2022-10-20T03:32:11;9.90;91.20
60469;DHT22;46316;47.582;10.238;2022-10-20T03:34:37;9.90;91.30
60469;DHT22;46316;47.582;10.238;2022-10-20T03:37:02;9.90;91.20
60469;DHT22;46316;47.582;10.238;2022-10-20T03:39:28;9.90;91.20
60469;DHT22;46316;47.582;10.238;2022-10-20T03:41:53;9.80;91.10
60469;DHT22;46316;47.582;10.238;2022-10-20T03:44:20;9.80;91.30
60469;DHT22;46316;47.582;10.238;2022-10-20T03:46:45;9.80;91.30
60469;DHT22;46316;47.582;10.238;2022-10-20T03:49:11;9.80;91.30
60469;DHT22;46316;47.582;10.238;2022-10-20T03:51:36;9.80;91.30
60469;DHT22;46316;47.582;10.238;2022-10-20T03:54:02;9.80;91.40
60469;DHT22;46316;47.582;10.238;2022-10-20T03:56:28;9.80;91.60
60469;DHT22;46316;47.582;10.238;2022-10-20T03:58:53;9.70;91.60
60469;DHT22;46316;47.582;10.238;2022-10-20T04:01:21;9.70;91.70
60469;DHT22;46316;47.582;10.238;2022-10-20T04:03:48;9.70;91.90
60469;DHT22;46316;47.582;10.238;2022-10-20T04:06:14;9.70;91.80
60469;DHT22;46316;47.582;10.238;2022-10-20T04:08:40;9.80;92.10
60469;DHT22;46316;47.582;10.238;2022-10-20T04:11:06;9.80;92.10
60469;DHT22;46316;47.582;10.238;2022-10-20T04:13:31;9.80;92.20
60469;DHT22;46316;47.582;10.238;2022-10-20T04:15:57;9.80;92.00
60469;DHT22;46316;47.582;10.238;2022-10-20T04:18:23;9.70;92.00
60469;DHT22;46316;47.582;10.238;2022-10-20T04:20:48;9.70;92.20
60469;DHT22;46316;47.582;10.238;2022-10-20T04:23:14;9.70;92.30
60469;DHT22;46316;47.582;10.238;2022-10-20T04:25:41;9.80;92.30
60469;DHT22;46316;47.582;10.238;2022-10-20T04:28:17;9.80;92.00
60469;DHT22;46316;47.582;10.238;2022-10-20T04:30:44;9.80;92.20
60469;DHT22;46316;47.582;10.238;2022-10-20T04:33:11;9.80;92.20
60469;DHT22;46316;47.582;10.238;2022-10-20T04:35:36;9.80;92.00
60469;DHT22;46316;47.582;10.238;2022-10-20T04:38:02;9.70;91.90
60469;DHT22;46316;47.582;10.238;2022-10-20T04:40:28;9.80;91.80
60469;DHT22;46316;47.582;10.238;2022-10-20T04:42:54;9.70;91.70
60469;DHT22;46316;47.582;10.238;2022-10-20T04:45:19;9.70;91.70
60469;DHT22;46316;47.582;10.238;2022-10-20T04:47:45;9.60;91.80
60469;DHT22;46316;47.582;10.238;2022-10-20T04:50:10;9.50;91.70
60469;DHT22;46316;47.582;10.238;2022-10-20T04:52:36;9.50;91.50
60469;DHT22;46316;47.582;10.238;2022-10-20T04:55:02;9.40;91.30
60469;DHT22;46316;47.582;10.238;2022-10-20T04:57:27;9.40;91.50
60469;DHT22;46316;47.582;10.238;2022-10-20T04:59:53;9.40;91.50
60469;DHT22;46316;47.582;10.238;2022-10-20T05:02:18;9.40;91.40
60469;DHT22;46316;47.582;10.238;2022-10-20T05:04:44;9.40;91.40
60469;DHT22;46316;47.582;10.238;2022-10-20T05:07:10;9.40;91.70
60469;DHT22;46316;47.582;10.238;2022-10-20T05:09:36;9.40;91.90
60469;DHT22;46316;47.582;10.238;2022-10-20T05:12:01;9.40;91.50
60469;DHT22;46316;47.582;10.238;2022-10-20T05:14:27;9.30;91.40
60469;DHT22;46316;47.582;10.238;2022-10-20T05:16:53;9.20;91.50
60469;DHT22;46316;47.582;10.238;2022-10-20T05:19:19;9.20;91.70
60469;DHT22;46316;47.582;10.238;2022-10-20T05:21:45;9.20;91.70
60469;DHT22;46316;47.582;10.238;2022-10-20T05:24:13;9.20;91.60
60469;DHT22;46316;47.582;10.238;2022-10-20T05:26:39;9.20;91.50
60469;DHT22;46316;47.582;10.238;2022-10-20T05:29:06;9.10;91.50
60469;DHT22;46316;47.582;10.238;2022-10-20T05:31:39;9.00;91.50
60469;DHT22;46316;47.582;10.238;2022-10-20T05:34:05;8.90;91.60
60469;DHT22;46316;47.582;10.238;2022-10-20T05:36:31;8.90;91.70
60469;DHT22;46316;47.582;10.238;2022-10-20T05:38:57;8.90;91.70
60469;DHT22;46316;47.582;10.238;2022-10-20T05:41:25;8.80;91.80
60469;DHT22;46316;47.582;10.238;2022-10-20T05:43:53;8.80;91.80
60469;DHT22;46316;47.582;10.238;2022-10-20T05:46:21;8.80;91.70
60469;DHT22;46316;47.582;10.238;2022-10-20T05:48:47;8.70;91.70
60469;DHT22;46316;47.582;10.238;2022-10-20T05:51:16;8.60;91.60
60469;DHT22;46316;47.582;10.238;2022-10-20T05:53:42;8.60;91.60
60469;DHT22;46316;47.582;10.238;2022-10-20T05:56:10;8.60;91.10
60469;DHT22;46316;47.582;10.238;2022-10-20T05:58:37;8.50;91.00
60469;DHT22;46316;47.582;10.238;2022-10-20T06:01:08;8.50;91.10
60469;DHT22;46316;47.582;10.238;2022-10-20T06:03:35;8.60;91.10
60469;DHT22;46316;47.582;10.238;2022-10-20T06:06:02;8.70;91.00
60469;DHT22;46316;47.582;10.238;2022-10-20T06:08:32;8.70;90.80
60469;DHT22;46316;47.582;10.238;2022-10-20T06:11:03;8.70;90.50
60469;DHT22;46316;47.582;10.238;2022-10-20T06:13:30;8.80;90.60
60469;DHT22;46316;47.582;10.238;2022-10-20T06:16:04;8.80;90.50
60469;DHT22;46316;47.582;10.238;2022-10-20T06:18:30;8.70;90.40
60469;DHT22;46316;47.582;10.238;2022-10-20T06:21:01;8.60;90.20
60469;DHT22;46316;47.582;10.238;2022-10-20T06:23:26;8.70;90.20
60469;DHT22;46316;47.582;10.238;2022-10-20T06:25:52;8.70;90.10
60469;DHT22;46316;47.582;10.238;2022-10-20T06:28:17;8.70;90.40
60469;DHT22;46316;47.582;10.238;2022-10-20T06:30:43;8.80;90.40
60469;DHT22;46316;47.582;10.238;2022-10-20T06:33:09;8.80;90.30
60469;DHT22;46316;47.582;10.238;2022-10-20T06:35:36;8.90;90.00
60469;DHT22;46316;47.582;10.238;2022-10-20T06:38:02;8.90;89.80
60469;DHT22;46316;47.582;10.238;2022-10-20T06:40:28;9.00;89.90
60469;DHT22;46316;47.582;10.238;2022-10-20T06:42:54;9.10;89.80
60469;DHT22;46316;47.582;10.238;2022-10-20T06:45:19;9.20;89.80
60469;DHT22;46316;47.582;10.238;2022-10-20T06:47:45;9.30;89.60
60469;DHT22;46316;47.582;10.238;2022-10-20T06:50:10;9.30;89.20
60469;DHT22;46316;47.582;10.238;2022-10-20T06:52:36;9.40;88.20
60469;DHT22;46316;47.582;10.238;2022-10-20T06:55:02;9.40;87.70
60469;DHT22;46316;47.582;10.238;2022-10-20T06:57:30;9.40;88.00
60469;DHT22;46316;47.582;10.238;2022-10-20T06:59:55;9.40;87.60
60469;DHT22;46316;47.582;10.238;2022-10-20T07:02:21;9.50;87.80
60469;DHT22;46316;47.582;10.238;2022-10-20T07:04:48;9.50;87.50
60469;DHT22;46316;47.582;10.238;2022-10-20T07:07:14;9.60;87.80
60469;DHT22;46316;47.582;10.238;2022-10-20T07:09:39;9.70;87.90
60469;DHT22;46316;47.582;10.238;2022-10-20T07:12:05;9.80;87.70
60469;DHT22;46316;47.582;10.238;2022-10-20T07:14:31;9.90;87.60
60469;DHT22;46316;47.582;10.238;2022-10-20T07:16:56;10.00;87.70
60469;DHT22;46316;47.582;10.238;2022-10-20T07:19:22;10.10;87.50
60469;DHT22;46316;47.582;10.238;2022-10-20T07:21:47;10.20;87.20
60469;DHT22;46316;47.582;10.238;2022-10-20T07:24:13;10.40;86.70
60469;DHT22;46316;47.582;10.238;2022-10-20T07:26:41;10.50;86.70
60469;DHT22;46316;47.582;10.238;2022-10-20T07:29:07;10.70;86.40
60469;DHT22;46316;47.582;10.238;2022-10-20T07:31:38;10.90;86.00
60469;DHT22;46316;47.582;10.238;2022-10-20T07:34:05;11.30;85.70
60469;DHT22;46316;47.582;10.238;2022-10-20T07:36:33;12.10;85.10
60469;DHT22;46316;47.582;10.238;2022-10-20T07:39:00;12.60;82.30
60469;DHT22;46316;47.582;10.238;2022-10-20T07:41:26;13.00;81.60
60469;DHT22;46316;47.582;10.238;2022-10-20T07:43:53;13.30;80.50
60469;DHT22;46316;47.582;10.238;2022-10-20T07:46:19;13.30;80.00
60469;DHT22;46316;47.582;10.238;2022-10-20T07:48:45;13.70;79.60
60469;DHT22;46316;47.582;10.238;2022-10-20T07:53:46;15.40;74.70
60469;DHT22;46316;47.582;10.238;2022-10-20T07:56:12;15.70;73.40
60469;DHT22;46316;47.582;10.238;2022-10-20T07:58:38;15.90;70.80
60469;DHT22;46316;47.582;10.238;2022-10-20T08:01:04;15.40;70.60
60469;DHT22;46316;47.582;10.238;2022-10-20T08:03:30;15.30;70.90
60469;DHT22;46316;47.582;10.238;2022-10-20T08:05:56;15.20;71.00
60469;DHT22;46316;47.582;10.238;2022-10-20T08:08:22;15.90;70.10
60469;DHT22;46316;47.582;10.238;2022-10-20T08:10:47;16.50;67.70
60469;DHT22;46316;47.582;10.238;2022-10-20T08:13:13;17.20;65.30
60469;DHT22;46316;47.582;10.238;2022-10-20T08:15:39;17.80;62.50
60469;DHT22;46316;47.582;10.238;2022-10-20T08:18:04;18.10;62.30
60469;DHT22;46316;47.582;10.238;2022-10-20T08:20:30;18.80;61.90
60469;DHT22;46316;47.582;10.238;2022-10-20T08:22:57;18.90;61.30
60469;DHT22;46316;47.582;10.238;2022-10-20T08:25:23;19.40;58.90
60469;DHT22;46316;47.582;10.238;2022-10-20T08:27:48;19.60;56.70
60469;DHT22;46316;47.582;10.238;2022-10-20T08:30:14;19.40;57.20
60469;DHT22;46316;47.582;10.238;2022-10-20T08:32:40;19.10;57.50
60469;DHT22;46316;47.582;10.238;2022-10-20T08:35:06;19.00;58.60
60469;DHT22;46316;47.582;10.238;2022-10-20T08:37:32;18.90;59.10
60469;DHT22;46316;47.582;10.238;2022-10-20T08:39:57;19.30;59.30
60469;DHT22;46316;47.582;10.238;2022-10-20T08:42:23;18.90;60.20
60469;DHT22;46316;47.582;10.238;2022-10-20T08:44:50;19.30;58.50
60469;DHT22;46316;47.582;10.238;2022-10-20T08:47:35;19.60;59.00
60469;DHT22;46316;47.582;10.238;2022-10-20T08:50:04;19.90;57.60
60469;DHT22;46316;47.582;10.238;2022-10-20T08:52:30;20.10;57.70
60469;DHT22;46316;47.582;10.238;2022-10-20T08:54:57;19.60;58.40
60469;DHT22;46316;47.582;10.238;2022-10-20T08:57:26;19.20;59.80
60469;DHT22;46316;47.582;10.238;2022-10-20T08:59:53;19.40;59.40
60469;DHT22;46316;47.582;10.238;2022-10-20T09:02:21;19.80;58.80
60469;DHT22;46316;47.582;10.238;2022-10-20T09:04:48;19.40;58.80
60469;DHT22;46316;47.582;10.238;2022-10-20T09:07:25;20.10;57.50
60469;DHT22;46316;47.582;10.238;2022-10-20T09:09:52;20.30;56.80
60469;DHT22;46316;47.582;10.238;2022-10-20T09:12:20;20.20;56.80
60469;DHT22;46316;47.582;10.238;2022-10-20T09:14:46;20.60;56.50
60469;DHT22;46316;47.582;10.238;2022-10-20T09:17:15;20.50;56.00
60469;DHT22;46316;47.582;10.238;2022-10-20T09:19:46;20.90;55.60
60469;DHT22;46316;47.582;10.238;2022-10-20T09:22:13;20.90;54.60
60469;DHT22;46316;47.582;10.238;2022-10-20T09:24:41;20.90;55.60
60469;DHT22;46316;47.582;10.238;2022-10-20T09:29:53;21.00;54.80
60469;DHT22;46316;47.582;10.238;2022-10-20T09:32:30;20.90;54.60
60469;DHT22;46316;47.582;10.238;2022-10-20T09:37:53;21.30;53.40
60469;DHT22;46316;47.582;10.238;2022-10-20T09:40:20;21.80;52.90
60469;DHT22;46316;47.582;10.238;2022-10-20T09:42:53;21.90;52.40
60469;DHT22;46316;47.582;10.238;2022-10-20T09:45:22;22.10;53.00
60469;DHT22;46316;47.582;10.238;2022-10-20T09:47:51;22.00;52.70
60469;DHT22;46316;47.582;10.238;2022-10-20T09:50:36;22.30;51.90
60469;DHT22;46316;47.582;10.238;2022-10-20T09:53:05;22.70;50.20
60469;DHT22;46316;47.582;10.238;2022-10-20T09:55:45;22.50;51.60
60469;DHT22;46316;47.582;10.238;2022-10-20T10:01:05;22.30;51.70
60469;DHT22;46316;47.582;10.238;2022-10-20T10:03:44;22.30;51.90
60469;DHT22;46316;47.582;10.238;2022-10-20T10:09:31;21.80;51.90
60469;DHT22;46316;47.582;10.238;2022-10-20T10:11:59;21.80;53.00
60469;DHT22;46316;47.582;10.238;2022-10-20T10:14:26;21.60;55.30
60469;DHT22;46316;47.582;10.238;2022-10-20T10:16:52;21.60;54.00
60469;DHT22;46316;47.582;10.238;2022-10-20T10:19:24;21.50;54.00
60469;DHT22;46316;47.582;10.238;2022-10-20T10:21:53;21.90;52.40
60469;DHT22;46316;47.582;10.238;2022-10-20T10:24:41;21.40;52.70
60469;DHT22;46316;47.582;10.238;2022-10-20T10:29:44;20.90;55.20
60469;DHT22;46316;47.582;10.238;2022-10-20T10:32:23;20.90;55.70
60469;DHT22;46316;47.582;10.238;2022-10-20T10:37:53;20.50;56.70
60469;DHT22;46316;47.582;10.238;2022-10-20T10:40:27;20.40;57.70
60469;DHT22;46316;47.582;10.238;2022-10-20T10:46:06;20.00;58.20
60469;DHT22;46316;47.582;10.238;2022-10-20T10:48:53;19.90;59.80
60469;DHT22;46316;47.582;10.238;2022-10-20T10:54:20;19.90;59.90
60469;DHT22;46316;47.582;10.238;2022-10-20T10:56:53;19.80;60.60
60469;DHT22;46316;47.582;10.238;2022-10-20T10:59:36;19.80;61.40
60469;DHT22;46316;47.582;10.238;2022-10-20T11:02:28;20.00;60.60
60469;DHT22;46316;47.582;10.238;2022-10-20T11:05:21;20.20;60.00
60469;DHT22;46316;47.582;10.238;2022-10-20T11:10:28;20.90;55.90
60469;DHT22;46316;47.582;10.238;2022-10-20T11:18:52;21.80;50.90
60469;DHT22;46316;47.582;10.238;2022-10-20T11:27:10;21.60;55.00
60469;DHT22;46316;47.582;10.238;2022-10-20T11:29:43;21.40;55.40
60469;DHT22;46316;47.582;10.238;2022-10-20T11:45:30;20.40;58.90
60469;DHT22;46316;47.582;10.238;2022-10-20T11:48:17;20.40;58.90
60469;DHT22;46316;47.582;10.238;2022-10-20T11:50:50;20.30;56.60
60469;DHT22;46316;47.582;10.238;2022-10-20T11:56:10;20.90;55.50
60469;DHT22;46316;47.582;10.238;2022-10-20T11:59:02;21.30;54.90
60469;DHT22;46316;47.582;10.238;2022-10-20T12:10:41;21.00;57.90
60469;DHT22;46316;47.582;10.238;2022-10-20T12:15:47;20.60;61.20
60469;DHT22;46316;47.582;10.238;2022-10-20T12:18:33;20.40;62.60
60469;DHT22;46316;47.582;10.238;2022-10-20T12:21:09;20.00;64.20
60469;DHT22;46316;47.582;10.238;2022-10-20T12:29:05;19.60;63.60
60469;DHT22;46316;47.582;10.238;2022-10-20T12:35:27;19.60;63.00
60469;DHT22;46316;47.582;10.238;2022-10-20T12:38:00;19.50;61.20
60469;DHT22;46316;47.582;10.238;2022-10-20T12:40:31;19.50;60.50
60469;DHT22;46316;47.582;10.238;2022-10-20T12:42:58;19.40;60.80
60469;DHT22;46316;47.582;10.238;2022-10-20T12:45:41;19.50;61.90
60469;DHT22;46316;47.582;10.238;2022-10-20T12:48:19;19.50;62.70
60469;DHT22;46316;47.582;10.238;2022-10-20T12:50:47;19.40;63.70
60469;DHT22;46316;47.582;10.238;2022-10-20T12:53:21;19.40;63.70
60469;DHT22;46316;47.582;10.238;2022-10-20T12:55:59;19.40;64.50
60469;DHT22;46316;47.582;10.238;2022-10-20T12:58:38;19.40;64.50
60469;DHT22;46316;47.582;10.238;2022-10-20T13:01:14;19.40;62.80
60469;DHT22;46316;47.582;10.238;2022-10-20T13:03:48;19.40;60.60
60469;DHT22;46316;47.582;10.238;2022-10-20T13:16:39;19.50;56.90
60469;DHT22;46316;47.582;10.238;2022-10-20T13:19:08;19.50;55.90
60469;DHT22;46316;47.582;10.238;2022-10-20T13:21:38;19.60;56.00
60469;DHT22;46316;47.582;10.238;2022-10-20T13:29:12;19.50;58.20
60469;DHT22;46316;47.582;10.238;2022-10-20T13:31:53;19.60;58.10
60469;DHT22;46316;47.582;10.238;2022-10-20T13:34:30;19.50;57.00
60469;DHT22;46316;47.582;10.238;2022-10-20T13:37:20;19.50;59.30
60469;DHT22;46316;47.582;10.238;2022-10-20T13:53:50;19.10;64.00
60469;DHT22;46316;47.582;10.238;2022-10-20T13:56:18;19.10;64.50
60469;DHT22;46316;47.582;10.238;2022-10-20T13:59:01;19.10;64.60
60469;DHT22;46316;47.582;10.238;2022-10-20T14:01:30;19.10;65.80
60469;DHT22;46316;47.582;10.238;2022-10-20T14:03:56;19.00;64.80
60469;DHT22;46316;47.582;10.238;2022-10-20T14:06:33;18.90;62.70
60469;DHT22;46316;47.582;10.238;2022-10-20T14:09:17;18.90;62.70
60469;DHT22;46316;47.582;10.238;2022-10-20T14:11:46;18.80;64.00
60469;DHT22;46316;47.582;10.238;2022-10-20T14:14:17;18.70;62.70
60469;DHT22;46316;47.582;10.238;2022-10-20T14:19:22;18.60;64.40
60469;DHT22;46316;47.582;10.238;2022-10-20T14:21:53;18.50;64.60
60469;DHT22;46316;47.582;10.238;2022-10-20T14:24:33;18.40;64.70
60469;DHT22;46316;47.582;10.238;2022-10-20T14:27:02;18.40;65.20
60469;DHT22;46316;47.582;10.238;2022-10-20T14:29:31;18.40;65.80
60469;DHT22;46316;47.582;10.238;2022-10-20T14:31:57;18.30;65.20
60469;DHT22;46316;47.582;10.238;2022-10-20T14:34:27;18.30;65.30
60469;DHT22;46316;47.582;10.238;2022-10-20T14:36:53;18.30;65.50
60469;DHT22;46316;47.582;10.238;2022-10-20T14:39:34;18.30;65.30
60469;DHT22;46316;47.582;10.238;2022-10-20T14:42:03;18.20;65.30
60469;DHT22;46316;47.582;10.238;2022-10-20T14:44:29;18.20;65.20
60469;DHT22;46316;47.582;10.238;2022-10-20T14:46:58;18.20;65.00
60469;DHT22;46316;47.582;10.238;2022-10-20T14:49:26;18.10;64.40
60469;DHT22;46316;47.582;10.238;2022-10-20T14:54:24;18.10;65.70
60469;DHT22;46316;47.582;10.238;2022-10-20T14:59:51;18.00;64.60
60469;DHT22;46316;47.582;10.238;2022-10-20T15:02:16;18.00;65.30
60469;DHT22;46316;47.582;10.238;2022-10-20T15:04:45;17.90;66.60
60469;DHT22;46316;47.582;10.238;2022-10-20T15:09:42;17.80;69.30
60469;DHT22;46316;47.582;10.238;2022-10-20T15:17:44;17.50;69.40
60469;DHT22;46316;47.582;10.238;2022-10-20T15:20:42;17.40;70.10
60469;DHT22;46316;47.582;10.238;2022-10-20T15:23:10;17.40;70.80
60469;DHT22;46316;47.582;10.238;2022-10-20T15:30:54;17.10;72.70
60469;DHT22;46316;47.582;10.238;2022-10-20T15:33:20;17.00;72.50
60469;DHT22;46316;47.582;10.238;2022-10-20T15:35:46;16.90;72.70
60469;DHT22;46316;47.582;10.238;2022-10-20T15:38:13;16.90;73.50
60469;DHT22;46316;47.582;10.238;2022-10-20T15:40:39;16.90;73.90
60469;DHT22;46316;47.582;10.238;2022-10-20T15:43:05;16.80;74.10
60469;DHT22;46316;47.582;10.238;2022-10-20T15:45:37;16.70;74.90
60469;DHT22;46316;47.582;10.238;2022-10-20T15:48:03;16.60;75.40
60469;DHT22;46316;47.582;10.238;2022-10-20T15:50:30;16.60;75.70
60469;DHT22;46316;47.582;10.238;2022-10-20T15:52:55;16.50;75.80
60469;DHT22;46316;47.582;10.238;2022-10-20T15:55:30;16.40;75.80
60469;DHT22;46316;47.582;10.238;2022-10-20T15:57:56;16.30;76.00
60469;DHT22;46316;47.582;10.238;2022-10-20T16:00:24;16.30;76.60
60469;DHT22;46316;47.582;10.238;2022-10-20T16:02:50;16.10;76.70
60469;DHT22;46316;47.582;10.238;2022-10-20T16:05:18;16.10;76.70
60469;DHT22;46316;47.582;10.238;2022-10-20T16:07:43;16.00;76.90
60469;DHT22;46316;47.582;10.238;2022-10-20T16:10:10;15.90;77.20
60469;DHT22;46316;47.582;10.238;2022-10-20T16:12:36;15.90;77.90
60469;DHT22;46316;47.582;10.238;2022-10-20T16:15:04;15.80;77.80
60469;DHT22;46316;47.582;10.238;2022-10-20T16:17:30;15.70;77.50
60469;DHT22;46316;47.582;10.238;2022-10-20T16:19:55;15.70;77.30
60469;DHT22;46316;47.582;10.238;2022-10-20T16:22:21;15.60;77.50
60469;DHT22;46316;47.582;10.238;2022-10-20T16:24:46;15.60;78.20
60469;DHT22;46316;47.582;10.238;2022-10-20T16:27:14;15.50;78.70
60469;DHT22;46316;47.582;10.238;2022-10-20T16:29:39;15.40;79.20
60469;DHT22;46316;47.582;10.238;2022-10-20T16:32:05;15.40;79.30
60469;DHT22;46316;47.582;10.238;2022-10-20T16:34:30;15.40;79.50
60469;DHT22;46316;47.582;10.238;2022-10-20T16:36:56;15.30;79.80
60469;DHT22;46316;47.582;10.238;2022-10-20T16:39:22;15.20;80.10
60469;DHT22;46316;47.582;10.238;2022-10-20T16:41:47;15.20;80.00
60469;DHT22;46316;47.582;10.238;2022-10-20T16:44:13;15.10;80.40
60469;DHT22;46316;47.582;10.238;2022-10-20T16:46:39;15.00;80.80
60469;DHT22;46316;47.582;10.238;2022-10-20T16:49:05;15.00;80.90
60469;DHT22;46316;47.582;10.238;2022-10-20T16:51:31;14.90;81.00
60469;DHT22;46316;47.582;10.238;2022-10-20T16:53:57;14.90;81.20
60469;DHT22;46316;47.582;10.238;2022-10-20T16:56:24;14.90;81.40
60469;DHT22;46316;47.582;10.238;2022-10-20T16:58:50;14.80;81.50
60469;DHT22;46316;47.582;10.238;2022-10-20T17:01:18;14.80;81.60
60469;DHT22;46316;47.582;10.238;2022-10-20T17:03:46;14.80;81.60
60469;DHT22;46316;47.582;10.238;2022-10-20T17:06:13;14.70;81.70
60469;DHT22;46316;47.582;10.238;2022-10-20T17:08:39;14.70;81.80
60469;DHT22;46316;47.582;10.238;2022-10-20T17:11:11;14.60;81.90
60469;DHT22;46316;47.582;10.238;2022-10-20T17:13:37;14.60;82.10
60469;DHT22;46316;47.582;10.238;2022-10-20T17:16:18;14.50;82.20
60469;DHT22;46316;47.582;10.238;2022-10-20T17:18:44;14.50;82.00
60469;DHT22;46316;47.582;10.238;2022-10-20T17:21:11;14.40;82.00
60469;DHT22;46316;47.582;10.238;2022-10-20T17:23:39;14.40;82.20
60469;DHT22;46316;47.582;10.238;2022-10-20T17:26:06;14.40;82.30
60469;DHT22;46316;47.582;10.238;2022-10-20T17:28:34;14.40;82.40
60469;DHT22;46316;47.582;10.238;2022-10-20T17:31:00;14.30;82.40
60469;DHT22;46316;47.582;10.238;2022-10-20T17:33:27;14.20;82.50
60469;DHT22;46316;47.582;10.238;2022-10-20T17:35:54;14.10;82.60
60469;DHT22;46316;47.582;10.238;2022-10-20T17:38:20;14.10;82.60
60469;DHT22;46316;47.582;10.238;2022-10-20T17:40:46;14.00;82.90
60469;DHT22;46316;47.582;10.238;2022-10-20T17:43:13;13.90;83.10
60469;DHT22;46316;47.582;10.238;2022-10-20T17:45:39;13.90;83.40
60469;DHT22;46316;47.582;10.238;2022-10-20T17:48:05;13.80;83.40
60469;DHT22;46316;47.582;10.238;2022-10-20T17:50:31;13.80;83.60
60469;DHT22;46316;47.582;10.238;2022-10-20T17:53:00;13.70;83.80
60469;DHT22;46316;47.582;10.238;2022-10-20T17:55:26;13.70;84.10
60469;DHT22;46316;47.582;10.238;2022-10-20T17:57:51;13.70;84.20